createdAt,value
2018-07-31T00:00:56.276Z,58.17
2018-07-31T00:01:56.300Z,58.36
2018-07-31T00:02:56.306Z,58.07
2018-07-31T00:03:56.324Z,58.46
2018-07-31T00:04:56.354Z,58.46
2018-07-31T00:05:56.370Z,58.46
2018-07-31T00:06:56.391Z,58.46
2018-07-31T00:07:56.430Z,58.17
2018-07-31T00:08:56.442Z,58.46
2018-07-31T00:09:56.457Z,58.75
2018-07-31T00:10:56.507Z,58.46
2018-07-31T00:11:56.514Z,58.65
2018-07-31T00:12:56.530Z,58.36
2018-07-31T00:13:56.604Z,58.17
2018-07-31T00:14:56.583Z,58.26
2018-07-31T00:15:56.609Z,58.36
2018-07-31T00:16:56.616Z,58.26
2018-07-31T00:17:56.643Z,58.07
2018-07-31T00:18:56.683Z,58.36
2018-07-31T00:19:56.683Z,58.36
2018-07-31T00:20:56.717Z,58.46
2018-07-31T00:21:56.732Z,58.65
2018-07-31T00:22:56.743Z,58.17
2018-07-31T00:23:56.763Z,58.07
2018-07-31T00:24:56.788Z,58.26
2018-07-31T00:25:56.814Z,58.07
2018-07-31T00:26:56.833Z,58.26
2018-07-31T00:27:56.854Z,58.17
2018-07-31T00:28:56.881Z,58.26
2018-07-31T00:29:56.897Z,58.56
2018-07-31T00:30:56.912Z,58.26
2018-07-31T00:31:56.948Z,58.17
2018-07-31T00:32:56.971Z,58.07
2018-07-31T00:33:56.985Z,58.07
2018-07-31T00:34:57.007Z,57.87
2018-07-31T00:35:57.027Z,57.97
2018-07-31T00:36:57.115Z,57.97
2018-07-31T00:37:57.073Z,57.78
2018-07-31T00:38:57.098Z,57.87
2018-07-31T00:39:57.117Z,57.78
2018-07-31T00:40:57.139Z,57.78
2018-07-31T00:41:57.162Z,57.87
2018-07-31T00:42:57.188Z,57.97
2018-07-31T00:43:57.201Z,58.07
2018-07-31T00:44:57.238Z,57.68
2018-07-31T00:45:57.248Z,57.87
2018-07-31T00:46:57.270Z,58.07
2018-07-31T00:47:57.283Z,58.26
2018-07-31T00:48:57.312Z,57.97
2018-07-31T00:49:57.339Z,58.07
2018-07-31T00:50:57.353Z,57.87
2018-07-31T00:51:57.407Z,57.87
2018-07-31T00:52:57.405Z,57.87
2018-07-31T00:53:57.424Z,57.87
2018-07-31T00:54:57.440Z,57.78
2018-07-31T00:55:57.462Z,58.17
2018-07-31T00:56:57.489Z,58.07
2018-07-31T00:57:57.513Z,58.07
2018-07-31T00:58:57.529Z,58.07
2018-07-31T00:59:57.567Z,58.07
2018-07-31T01:00:57.575Z,58.07
2018-07-31T01:01:57.597Z,57.97
2018-07-31T01:02:57.614Z,58.07
2018-07-31T01:03:57.643Z,58.07
2018-07-31T01:04:57.662Z,58.07
2018-07-31T01:05:57.679Z,58.07
2018-07-31T01:06:57.708Z,57.97
2018-07-31T01:07:57.725Z,58.07
2018-07-31T01:08:57.740Z,57.68
2018-07-31T01:09:57.789Z,57.68
2018-07-31T01:10:57.816Z,57.68
2018-07-31T01:11:57.818Z,57.68
2018-07-31T01:12:57.834Z,57.68
2018-07-31T01:13:57.862Z,57.78
2018-07-31T01:14:57.884Z,57.59
2018-07-31T01:15:57.903Z,58.17
2018-07-31T01:16:57.920Z,58.07
2018-07-31T01:17:57.949Z,58.07
2018-07-31T01:18:57.959Z,58.07
2018-07-31T01:19:57.985Z,57.97
2018-07-31T01:20:58.021Z,58.17
2018-07-31T01:21:58.029Z,58.07
2018-07-31T01:22:58.050Z,58.46
2018-07-31T01:23:58.090Z,58.36
2018-07-31T01:24:58.097Z,58.46
2018-07-31T01:25:58.108Z,58.36
2018-07-31T01:26:58.134Z,58.65
2018-07-31T01:27:58.168Z,58.46
2018-07-31T01:28:58.183Z,58.17
2018-07-31T01:29:58.197Z,58.17
2018-07-31T01:30:58.224Z,58.75
2018-07-31T01:31:58.244Z,57.97
2018-07-31T01:32:58.264Z,58.07
2018-07-31T01:33:58.290Z,58.07
2018-07-31T01:34:58.318Z,57.87
2018-07-31T01:35:58.333Z,57.78
2018-07-31T01:36:58.356Z,58.07
2018-07-31T01:37:58.376Z,57.97
2018-07-31T01:38:58.399Z,58.17
2018-07-31T01:39:58.417Z,58.17
2018-07-31T01:40:58.440Z,58.07
2018-07-31T01:41:58.470Z,58.17
2018-07-31T01:42:58.480Z,57.87
2018-07-31T01:43:58.511Z,58.07
2018-07-31T01:44:58.530Z,57.97
2018-07-31T01:45:58.556Z,57.97
2018-07-31T01:46:58.569Z,57.59
2018-07-31T01:47:58.594Z,57.78
2018-07-31T01:48:58.620Z,57.59
2018-07-31T01:49:58.638Z,58.07
2018-07-31T01:50:58.657Z,57.59
2018-07-31T01:51:58.686Z,57.68
2018-07-31T01:52:58.705Z,58.17
2018-07-31T01:53:58.730Z,57.97
2018-07-31T01:54:58.761Z,57.59
2018-07-31T01:55:58.770Z,58.17
2018-07-31T01:56:58.796Z,57.78
2018-07-31T01:57:58.816Z,57.87
2018-07-31T01:58:58.825Z,58.07
2018-07-31T01:59:58.846Z,57.78
2018-07-31T02:00:58.879Z,58.07
2018-07-31T02:01:58.901Z,57.68
2018-07-31T02:02:58.921Z,57.49
2018-07-31T02:03:58.946Z,57.39
2018-07-31T02:04:58.961Z,57.87
2018-07-31T02:05:58.979Z,57.78
2018-07-31T02:06:59.008Z,57.78
2018-07-31T02:07:59.029Z,57.78
2018-07-31T02:08:59.055Z,57.49
2018-07-31T02:09:59.072Z,57.78
2018-07-31T02:10:59.093Z,57.56
2018-07-31T02:11:59.114Z,57.59
2018-07-31T02:12:59.135Z,58.17
2018-07-31T02:13:59.159Z,57.78
2018-07-31T02:14:59.179Z,57.59
2018-07-31T02:15:59.202Z,57.39
2018-07-31T02:16:59.220Z,57.68
2018-07-31T02:17:59.258Z,57.78
2018-07-31T02:18:59.279Z,57.39
2018-07-31T02:19:59.287Z,57.39
2018-07-31T02:20:59.317Z,57.87
2018-07-31T02:21:59.335Z,57.68
2018-07-31T02:22:59.371Z,57.39
2018-07-31T02:23:59.406Z,57.68
2018-07-31T02:24:59.409Z,57.49
2018-07-31T02:25:59.417Z,57.39
2018-07-31T02:26:59.443Z,57.39
2018-07-31T02:27:59.530Z,57.49
2018-07-31T02:28:59.495Z,57.49
2018-07-31T02:29:59.517Z,57.39
2018-07-31T02:30:59.528Z,57.78
2018-07-31T02:31:59.567Z,57.39
2018-07-31T02:32:59.574Z,57.59
2018-07-31T02:33:59.591Z,57.65
2018-07-31T02:34:59.616Z,57.59
2018-07-31T02:35:59.639Z,57.59
2018-07-31T02:36:59.664Z,57.59
2018-07-31T02:37:59.707Z,57.39
2018-07-31T02:38:59.722Z,57.68
2018-07-31T02:39:59.734Z,57.68
2018-07-31T02:40:59.749Z,57.39
2018-07-31T02:41:59.773Z,57.39
2018-07-31T02:42:59.790Z,57.78
2018-07-31T02:43:59.817Z,57.49
2018-07-31T02:44:59.832Z,57.49
2018-07-31T02:45:59.856Z,57.68
2018-07-31T02:46:59.898Z,57.59
2018-07-31T02:47:59.908Z,57.65
2018-07-31T02:48:59.918Z,57.39
2018-07-31T02:49:59.939Z,57.39
2018-07-31T02:50:59.967Z,57.78
2018-07-31T02:51:59.982Z,57.39
2018-07-31T02:53:00.011Z,57.49
2018-07-31T02:54:00.027Z,57.49
2018-07-31T02:55:00.051Z,57.49
2018-07-31T02:56:00.074Z,57.85
2018-07-31T02:57:00.083Z,57.68
2018-07-31T02:58:00.119Z,57.68
2018-07-31T02:59:00.138Z,57.75
2018-07-31T03:00:00.170Z,57.78
2018-07-31T03:01:00.185Z,57.49
2018-07-31T03:02:00.211Z,57.78
2018-07-31T03:03:00.223Z,57.78
2018-07-31T03:04:00.251Z,57.49
2018-07-31T03:05:00.269Z,57.59
2018-07-31T03:06:00.299Z,57.68
2018-07-31T03:07:00.314Z,58.17
2018-07-31T03:08:00.343Z,57.78
2018-07-31T03:09:00.355Z,57.78
2018-07-31T03:10:00.374Z,57.78
2018-07-31T03:11:00.401Z,57.78
2018-07-31T03:12:00.421Z,57.39
2018-07-31T03:13:00.438Z,57.49
2018-07-31T03:14:00.472Z,57.68
2018-07-31T03:15:00.481Z,57.97
2018-07-31T03:16:00.503Z,57.59
2018-07-31T03:17:00.526Z,57.65
2018-07-31T03:18:00.550Z,57.78
2018-07-31T03:19:00.579Z,57.75
2018-07-31T03:20:00.597Z,57.39
2018-07-31T03:21:00.610Z,57.78
2018-07-31T03:22:00.635Z,57.49
2018-07-31T03:23:00.656Z,57.59
2018-07-31T03:24:00.689Z,58.17
2018-07-31T03:25:00.694Z,57.97
2018-07-31T03:26:00.728Z,57.29
2018-07-31T03:27:00.751Z,57.78
2018-07-31T03:28:00.768Z,57.46
2018-07-31T03:29:00.792Z,57.49
2018-07-31T03:30:00.811Z,57.36
2018-07-31T03:31:00.831Z,57.29
2018-07-31T03:32:00.857Z,57.68
2018-07-31T03:33:00.874Z,57.87
2018-07-31T03:34:00.902Z,57.46
2018-07-31T03:35:00.915Z,57.59
2018-07-31T03:36:00.942Z,57.59
2018-07-31T03:37:00.972Z,57.59
2018-07-31T03:38:00.987Z,57.39
2018-07-31T03:39:01.015Z,57.59
2018-07-31T03:40:01.034Z,57.49
2018-07-31T03:41:01.050Z,57.59
2018-07-31T03:42:01.069Z,57.49
2018-07-31T03:43:01.153Z,57.68
2018-07-31T03:44:01.118Z,57.49
2018-07-31T03:45:01.130Z,57.59
2018-07-31T03:46:01.158Z,57.49
2018-07-31T03:47:01.181Z,57.59
2018-07-31T03:48:01.203Z,57.68
2018-07-31T03:49:01.220Z,57.39
2018-07-31T03:50:01.254Z,57.49
2018-07-31T03:51:01.273Z,57.68
2018-07-31T03:52:01.289Z,57.59
2018-07-31T03:53:01.316Z,57.78
2018-07-31T03:54:01.336Z,57.78
2018-07-31T03:55:01.353Z,57.78
2018-07-31T03:56:01.380Z,57.59
2018-07-31T03:57:01.405Z,57.78
2018-07-31T03:58:01.424Z,57.68
2018-07-31T03:59:01.443Z,57.78
2018-07-31T04:00:01.462Z,57.59
2018-07-31T04:01:01.490Z,57.59
2018-07-31T04:02:01.505Z,57.78
2018-07-31T04:03:01.525Z,57.97
2018-07-31T04:04:01.550Z,58.17
2018-07-31T04:05:01.568Z,57.68
2018-07-31T04:06:01.590Z,57.59
2018-07-31T04:07:01.620Z,57.97
2018-07-31T04:08:01.649Z,57.68
2018-07-31T04:09:01.655Z,57.78
2018-07-31T04:10:01.680Z,57.78
2018-07-31T04:11:01.694Z,57.39
2018-07-31T04:12:01.732Z,57.68
2018-07-31T04:13:01.744Z,57.78
2018-07-31T04:14:01.763Z,57.59
2018-07-31T04:15:01.793Z,57.68
2018-07-31T04:16:01.807Z,57.68
2018-07-31T04:17:01.893Z,57.78
2018-07-31T04:18:01.867Z,57.49
2018-07-31T04:19:01.870Z,57.78
2018-07-31T04:20:01.894Z,57.68
2018-07-31T04:21:01.916Z,57.78
2018-07-31T04:22:01.940Z,57.78
2018-07-31T04:23:01.959Z,57.78
2018-07-31T04:24:01.981Z,57.68
2018-07-31T04:25:02.002Z,57.39
2018-07-31T04:26:02.061Z,57.68
2018-07-31T04:27:02.046Z,57.97
2018-07-31T04:28:02.082Z,58.36
2018-07-31T04:29:02.100Z,58.17
2018-07-31T04:30:02.133Z,57.97
2018-07-31T04:31:02.127Z,58.26
2018-07-31T04:32:02.161Z,57.97
2018-07-31T04:33:02.178Z,57.78
2018-07-31T04:34:02.190Z,58.26
2018-07-31T04:35:02.215Z,57.97
2018-07-31T04:36:02.249Z,57.87
2018-07-31T04:37:02.264Z,58.26
2018-07-31T04:38:02.293Z,57.78
2018-07-31T04:39:02.304Z,58.26
2018-07-31T04:40:02.340Z,57.78
2018-07-31T04:41:02.352Z,57.87
2018-07-31T04:42:02.381Z,58.07
2018-07-31T04:43:02.403Z,57.97
2018-07-31T04:44:02.414Z,58.17
2018-07-31T04:45:02.439Z,58.17
2018-07-31T04:46:02.462Z,57.78
2018-07-31T04:47:02.528Z,58.07
2018-07-31T04:48:02.505Z,58.07
2018-07-31T04:49:02.536Z,58.17
2018-07-31T04:50:02.551Z,58.07
2018-07-31T04:51:02.567Z,58.07
2018-07-31T04:52:02.589Z,58.17
2018-07-31T04:53:02.611Z,57.87
2018-07-31T04:54:02.640Z,57.49
2018-07-31T04:55:02.654Z,57.68
2018-07-31T04:56:02.711Z,57.39
2018-07-31T04:57:02.707Z,57.49
2018-07-31T04:58:02.713Z,57.87
2018-07-31T04:59:02.748Z,57.78
2018-07-31T05:00:02.776Z,57.87
2018-07-31T05:01:02.781Z,57.68
2018-07-31T05:02:02.934Z,57.59
2018-07-31T05:03:02.835Z,57.49
2018-07-31T05:04:02.849Z,57.49
2018-07-31T05:05:02.871Z,57.68
2018-07-31T05:06:02.890Z,57.78
2018-07-31T05:07:02.915Z,57.78
2018-07-31T05:08:02.936Z,57.78
2018-07-31T05:09:02.966Z,57.78
2018-07-31T05:10:02.982Z,57.59
2018-07-31T05:11:03.041Z,57.59
2018-07-31T05:12:03.028Z,57.59
2018-07-31T05:13:03.047Z,57.78
2018-07-31T05:14:03.063Z,57.68
2018-07-31T05:15:03.087Z,57.78
2018-07-31T05:16:03.109Z,57.68
2018-07-31T05:17:03.130Z,57.68
2018-07-31T05:18:03.152Z,57.59
2018-07-31T05:19:03.177Z,57.29
2018-07-31T05:20:03.197Z,57.29
2018-07-31T05:21:03.226Z,58.07
2018-07-31T05:22:03.241Z,57.59
2018-07-31T05:23:03.278Z,57.00
2018-07-31T05:24:03.288Z,57.00
2018-07-31T05:25:03.306Z,57.10
2018-07-31T05:26:03.322Z,57.00
2018-07-31T05:27:03.348Z,56.90
2018-07-31T05:28:03.383Z,57.87
2018-07-31T05:29:03.393Z,57.00
2018-07-31T05:30:03.418Z,57.29
2018-07-31T05:31:03.448Z,57.29
2018-07-31T05:32:03.463Z,57.29
2018-07-31T05:33:03.483Z,56.90
2018-07-31T05:34:03.499Z,57.29
2018-07-31T05:35:03.524Z,57.29
2018-07-31T05:36:03.546Z,57.29
2018-07-31T05:37:03.567Z,57.29
2018-07-31T05:38:03.600Z,57.10
2018-07-31T05:39:03.611Z,57.20
2018-07-31T05:40:03.638Z,57.39
2018-07-31T05:41:03.650Z,57.29
2018-07-31T05:42:03.678Z,57.49
2018-07-31T05:43:03.695Z,57.59
2018-07-31T05:44:03.721Z,57.29
2018-07-31T05:45:03.742Z,57.29
2018-07-31T05:46:03.776Z,57.39
2018-07-31T05:47:03.787Z,57.49
2018-07-31T05:48:03.809Z,57.10
2018-07-31T05:49:03.832Z,57.59
2018-07-31T05:50:03.845Z,57.00
2018-07-31T05:51:03.879Z,57.59
2018-07-31T05:52:03.907Z,57.68
2018-07-31T05:53:03.916Z,57.68
2018-07-31T05:54:03.941Z,57.49
2018-07-31T05:55:03.956Z,57.59
2018-07-31T05:56:03.986Z,57.59
2018-07-31T05:57:04.019Z,57.00
2018-07-31T05:58:04.021Z,57.39
2018-07-31T05:59:04.042Z,57.59
2018-07-31T06:00:04.085Z,57.59
2018-07-31T06:01:04.090Z,57.10
2018-07-31T06:02:04.171Z,57.68
2018-07-31T06:03:04.133Z,57.20
2018-07-31T06:04:04.163Z,57.29
2018-07-31T06:05:04.179Z,57.10
2018-07-31T06:06:04.199Z,57.00
2018-07-31T06:07:04.215Z,57.49
2018-07-31T06:08:04.242Z,56.90
2018-07-31T06:09:04.265Z,57.10
2018-07-31T06:10:04.291Z,57.39
2018-07-31T06:11:04.311Z,57.00
2018-07-31T06:12:04.334Z,57.49
2018-07-31T06:13:04.347Z,57.00
2018-07-31T06:14:04.385Z,57.10
2018-07-31T06:15:04.394Z,57.20
2018-07-31T06:16:04.414Z,57.10
2018-07-31T06:17:04.442Z,57.39
2018-07-31T06:18:04.460Z,57.49
2018-07-31T06:19:04.481Z,57.39
2018-07-31T06:20:04.494Z,57.10
2018-07-31T06:21:04.568Z,56.81
2018-07-31T06:22:04.549Z,56.81
2018-07-31T06:23:04.568Z,57.87
2018-07-31T06:24:04.589Z,57.10
2018-07-31T06:25:04.613Z,57.10
2018-07-31T06:26:04.633Z,57.10
2018-07-31T06:27:04.675Z,57.00
2018-07-31T06:28:04.698Z,57.59
2018-07-31T06:29:04.709Z,57.10
2018-07-31T06:30:04.728Z,56.81
2018-07-31T06:31:04.740Z,57.59
2018-07-31T06:32:04.761Z,56.61
2018-07-31T06:33:04.795Z,57.59
2018-07-31T06:34:04.805Z,56.71
2018-07-31T06:35:04.835Z,56.81
2018-07-31T06:36:04.850Z,56.61
2018-07-31T06:37:04.867Z,56.71
2018-07-31T06:38:04.892Z,56.71
2018-07-31T06:39:04.914Z,56.90
2018-07-31T06:40:04.938Z,57.10
2018-07-31T06:41:04.955Z,56.71
2018-07-31T06:42:04.982Z,56.71
2018-07-31T06:43:05.006Z,56.61
2018-07-31T06:44:05.024Z,57.29
2018-07-31T06:45:05.045Z,57.20
2018-07-31T06:46:05.078Z,56.71
2018-07-31T06:47:05.098Z,57.39
2018-07-31T06:48:05.115Z,57.20
2018-07-31T06:49:05.140Z,56.61
2018-07-31T06:50:05.159Z,56.71
2018-07-31T06:51:05.175Z,56.51
2018-07-31T06:52:05.197Z,56.61
2018-07-31T06:53:05.227Z,56.71
2018-07-31T06:54:05.252Z,57.10
2018-07-31T06:55:05.265Z,56.71
2018-07-31T06:56:05.288Z,56.61
2018-07-31T06:57:05.312Z,56.61
2018-07-31T06:58:05.335Z,56.71
2018-07-31T06:59:05.374Z,56.71
2018-07-31T07:00:05.384Z,56.71
2018-07-31T07:01:05.401Z,56.61
2018-07-31T07:02:05.476Z,56.71
2018-07-31T07:03:05.439Z,56.71
2018-07-31T07:04:05.460Z,56.71
2018-07-31T07:05:05.484Z,56.61
2018-07-31T07:06:05.506Z,57.10
2018-07-31T07:07:05.547Z,56.51
2018-07-31T07:08:05.565Z,56.71
2018-07-31T07:09:05.564Z,56.61
2018-07-31T07:10:05.592Z,56.71
2018-07-31T07:11:05.612Z,56.61
2018-07-31T07:12:05.635Z,56.71
2018-07-31T07:13:05.663Z,56.61
2018-07-31T07:14:05.686Z,56.51
2018-07-31T07:15:05.703Z,56.71
2018-07-31T07:16:05.725Z,56.51
2018-07-31T07:17:05.777Z,56.90
2018-07-31T07:18:05.766Z,56.81
2018-07-31T07:19:05.790Z,57.20
2018-07-31T07:20:05.805Z,56.71
2018-07-31T07:21:05.827Z,56.51
2018-07-31T07:22:05.847Z,56.71
2018-07-31T07:23:05.872Z,56.61
2018-07-31T07:24:05.895Z,56.81
2018-07-31T07:25:05.920Z,56.81
2018-07-31T07:26:05.935Z,57.29
2018-07-31T07:27:05.961Z,56.61
2018-07-31T07:28:05.983Z,56.71
2018-07-31T07:29:06.002Z,56.81
2018-07-31T07:30:06.029Z,56.61
2018-07-31T07:31:06.057Z,56.81
2018-07-31T07:32:06.068Z,56.81
2018-07-31T07:33:06.090Z,56.71
2018-07-31T07:34:06.111Z,56.81
2018-07-31T07:35:06.137Z,56.81
2018-07-31T07:36:06.158Z,56.61
2018-07-31T07:37:06.180Z,56.81
2018-07-31T07:38:06.192Z,56.71
2018-07-31T07:39:06.229Z,56.71
2018-07-31T07:40:06.321Z,56.71
2018-07-31T07:41:06.263Z,56.81
2018-07-31T07:42:06.297Z,56.71
2018-07-31T07:43:06.314Z,56.71
2018-07-31T07:44:06.332Z,56.61
2018-07-31T07:45:06.353Z,56.71
2018-07-31T07:46:06.373Z,57.00
2018-07-31T07:47:06.392Z,56.71
2018-07-31T07:48:06.465Z,57.20
2018-07-31T07:49:06.444Z,57.29
2018-07-31T07:50:06.460Z,56.61
2018-07-31T07:51:06.479Z,56.61
2018-07-31T07:52:06.496Z,56.81
2018-07-31T07:53:06.528Z,57.29
2018-07-31T07:54:06.620Z,57.10
2018-07-31T07:55:06.570Z,56.81
2018-07-31T07:56:06.586Z,57.10
2018-07-31T07:57:06.611Z,56.90
2018-07-31T07:58:06.630Z,57.00
2018-07-31T07:59:06.656Z,57.00
2018-07-31T08:00:06.681Z,57.10
2018-07-31T08:01:06.700Z,56.81
2018-07-31T08:02:06.776Z,56.90
2018-07-31T08:03:06.742Z,56.90
2018-07-31T08:04:06.786Z,56.90
2018-07-31T08:05:06.784Z,56.90
2018-07-31T08:06:06.808Z,57.10
2018-07-31T08:07:06.827Z,56.90
2018-07-31T08:08:06.853Z,57.10
2018-07-31T08:09:06.870Z,57.00
2018-07-31T08:10:06.896Z,56.81
2018-07-31T08:11:06.918Z,56.81
2018-07-31T08:12:06.934Z,57.10
2018-07-31T08:13:06.956Z,57.10
2018-07-31T08:14:06.976Z,57.00
2018-07-31T08:15:07.089Z,56.90
2018-07-31T08:16:07.025Z,57.00
2018-07-31T08:17:07.040Z,56.90
2018-07-31T08:18:07.069Z,57.00
2018-07-31T08:19:07.088Z,57.00
2018-07-31T08:20:07.112Z,57.00
2018-07-31T08:21:07.133Z,56.90
2018-07-31T08:22:07.161Z,57.10
2018-07-31T08:23:07.288Z,57.00
2018-07-31T08:24:07.198Z,57.00
2018-07-31T08:25:07.220Z,57.20
2018-07-31T08:26:07.242Z,56.22
2018-07-31T08:27:07.262Z,57.10
2018-07-31T08:28:07.325Z,57.00
2018-07-31T08:29:07.307Z,57.00
2018-07-31T08:30:07.331Z,57.10
2018-07-31T08:31:07.349Z,57.00
2018-07-31T08:32:07.376Z,57.10
2018-07-31T08:33:07.395Z,57.00
2018-07-31T08:34:07.415Z,57.00
2018-07-31T08:35:07.447Z,56.22
2018-07-31T08:36:07.458Z,56.25
2018-07-31T08:37:07.485Z,57.00
2018-07-31T08:38:07.504Z,57.00
2018-07-31T08:39:07.520Z,57.00
2018-07-31T08:40:07.546Z,57.00
2018-07-31T08:41:07.562Z,57.39
2018-07-31T08:42:07.595Z,57.20
2018-07-31T08:43:07.629Z,57.00
2018-07-31T08:44:07.635Z,57.20
2018-07-31T08:45:07.657Z,56.51
2018-07-31T08:46:07.697Z,57.29
2018-07-31T08:47:07.702Z,56.51
2018-07-31T08:48:07.714Z,57.29
2018-07-31T08:49:07.742Z,56.22
2018-07-31T08:50:07.761Z,56.22
2018-07-31T08:51:07.811Z,57.20
2018-07-31T08:52:07.803Z,57.00
2018-07-31T08:53:07.834Z,56.61
2018-07-31T08:54:07.845Z,57.00
2018-07-31T08:55:07.867Z,57.20
2018-07-31T08:56:07.895Z,57.20
2018-07-31T08:57:07.919Z,57.00
2018-07-31T08:58:07.943Z,56.51
2018-07-31T08:59:08.006Z,56.61
2018-07-31T09:00:07.980Z,56.71
2018-07-31T09:01:07.998Z,57.10
2018-07-31T09:02:08.025Z,56.71
2018-07-31T09:03:08.045Z,56.51
2018-07-31T09:04:08.067Z,56.71
2018-07-31T09:05:08.092Z,57.20
2018-07-31T09:06:08.113Z,56.61
2018-07-31T09:07:08.138Z,56.71
2018-07-31T09:08:08.219Z,56.41
2018-07-31T09:09:08.192Z,57.29
2018-07-31T09:10:08.194Z,56.61
2018-07-31T09:11:08.214Z,56.51
2018-07-31T09:12:08.242Z,57.10
2018-07-31T09:13:08.262Z,56.51
2018-07-31T09:14:08.294Z,56.61
2018-07-31T09:15:08.311Z,56.51
2018-07-31T09:16:08.329Z,56.51
2018-07-31T09:17:08.350Z,57.29
2018-07-31T09:18:08.372Z,56.41
2018-07-31T09:19:08.411Z,56.51
2018-07-31T09:20:08.413Z,56.41
2018-07-31T09:21:08.456Z,56.41
2018-07-31T09:22:08.456Z,56.41
2018-07-31T09:23:08.479Z,57.29
2018-07-31T09:24:08.503Z,57.29
2018-07-31T09:25:08.526Z,56.41
2018-07-31T09:26:08.557Z,56.51
2018-07-31T09:27:08.597Z,56.51
2018-07-31T09:28:08.588Z,56.51
2018-07-31T09:29:08.609Z,57.29
2018-07-31T09:30:08.629Z,56.41
2018-07-31T09:31:08.927Z,56.71
2018-07-31T09:32:08.685Z,56.51
2018-07-31T09:33:08.709Z,56.71
2018-07-31T09:34:08.718Z,56.90
2018-07-31T09:35:08.741Z,56.71
2018-07-31T09:36:08.771Z,56.51
2018-07-31T09:37:08.783Z,56.61
2018-07-31T09:38:08.866Z,56.71
2018-07-31T09:39:08.838Z,56.61
2018-07-31T09:40:08.854Z,56.61
2018-07-31T09:41:08.873Z,56.41
2018-07-31T09:42:08.888Z,57.10
2018-07-31T09:43:08.911Z,56.61
2018-07-31T09:44:09.004Z,56.41
2018-07-31T09:45:08.949Z,56.61
2018-07-31T09:46:08.978Z,56.61
2018-07-31T09:47:09.001Z,56.51
2018-07-31T09:48:09.037Z,56.51
2018-07-31T09:49:09.044Z,56.90
2018-07-31T09:50:09.065Z,56.90
2018-07-31T09:51:09.085Z,56.61
2018-07-31T09:52:09.109Z,56.41
2018-07-31T09:53:09.169Z,56.81
2018-07-31T09:54:09.178Z,56.32
2018-07-31T09:55:09.180Z,56.90
2018-07-31T09:56:09.227Z,56.51
2018-07-31T09:57:09.254Z,56.41
2018-07-31T09:58:09.232Z,56.45
2018-07-31T09:59:09.308Z,56.41
2018-07-31T10:00:09.286Z,56.71
2018-07-31T10:01:09.302Z,56.51
2018-07-31T10:02:09.338Z,56.22
2018-07-31T10:03:09.350Z,56.41
2018-07-31T10:04:09.371Z,56.41
2018-07-31T10:05:09.435Z,56.41
2018-07-31T10:06:09.414Z,56.41
2018-07-31T10:07:09.434Z,56.32
2018-07-31T10:08:09.457Z,56.41
2018-07-31T10:09:09.480Z,56.61
2018-07-31T10:10:09.501Z,56.81
2018-07-31T10:11:09.531Z,56.71
2018-07-31T10:12:09.612Z,56.71
2018-07-31T10:13:09.609Z,56.51
2018-07-31T10:14:09.584Z,56.61
2018-07-31T10:15:09.608Z,56.41
2018-07-31T10:16:09.631Z,56.32
2018-07-31T10:17:09.654Z,56.81
2018-07-31T10:18:09.751Z,57.00
2018-07-31T10:19:09.798Z,56.81
2018-07-31T10:20:09.719Z,57.10
2018-07-31T10:21:09.739Z,56.51
2018-07-31T10:22:09.764Z,56.41
2018-07-31T10:23:09.796Z,56.41
2018-07-31T10:24:09.816Z,56.41
2018-07-31T10:25:09.831Z,56.71
2018-07-31T10:26:09.848Z,56.51
2018-07-31T10:27:09.870Z,56.51
2018-07-31T10:28:09.898Z,56.51
2018-07-31T10:29:09.918Z,56.61
2018-07-31T10:30:09.938Z,57.20
2018-07-31T10:31:09.958Z,56.51
2018-07-31T10:32:09.985Z,56.81
2018-07-31T10:33:10.000Z,57.10
2018-07-31T10:34:10.019Z,57.00
2018-07-31T10:35:10.047Z,56.51
2018-07-31T10:36:10.070Z,56.90
2018-07-31T10:37:10.089Z,56.51
2018-07-31T10:38:10.117Z,56.61
2018-07-31T10:39:10.139Z,56.61
2018-07-31T10:40:10.150Z,56.41
2018-07-31T10:41:10.168Z,56.51
2018-07-31T10:42:10.203Z,56.54
2018-07-31T10:43:10.223Z,56.61
2018-07-31T10:44:10.240Z,56.61
2018-07-31T10:45:10.288Z,56.51
2018-07-31T10:46:10.291Z,57.00
2018-07-31T10:47:10.315Z,56.51
2018-07-31T10:48:10.341Z,57.03
2018-07-31T10:49:10.359Z,56.64
2018-07-31T10:50:10.393Z,57.03
2018-07-31T10:51:10.462Z,57.00
2018-07-31T10:52:10.472Z,56.54
2018-07-31T10:53:10.441Z,56.61
2018-07-31T10:54:10.458Z,56.41
2018-07-31T10:55:10.610Z,56.61
2018-07-31T10:56:10.502Z,56.61
2018-07-31T10:57:10.526Z,56.51
2018-07-31T10:58:10.573Z,56.61
2018-07-31T10:59:10.564Z,56.93
2018-07-31T11:00:10.637Z,56.61
2018-07-31T11:01:10.604Z,56.64
2018-07-31T11:02:10.633Z,56.51
2018-07-31T11:03:10.755Z,56.90
2018-07-31T11:04:10.725Z,56.61
2018-07-31T11:05:10.703Z,56.51
2018-07-31T11:06:10.793Z,56.90
2018-07-31T11:07:10.737Z,57.20
2018-07-31T11:08:10.764Z,56.61
2018-07-31T11:09:10.775Z,57.10
2018-07-31T11:10:10.804Z,56.51
2018-07-31T11:11:10.827Z,57.29
2018-07-31T11:12:10.849Z,56.84
2018-07-31T11:13:10.904Z,56.61
2018-07-31T11:14:10.900Z,56.61
2018-07-31T11:15:10.918Z,56.61
2018-07-31T11:16:10.932Z,56.61
2018-07-31T11:17:10.963Z,56.64
2018-07-31T11:18:10.979Z,57.10
2018-07-31T11:19:10.998Z,56.61
2018-07-31T11:20:11.021Z,56.93
2018-07-31T11:21:11.052Z,56.64
2018-07-31T11:22:11.067Z,56.61
2018-07-31T11:23:11.087Z,56.41
2018-07-31T11:24:11.111Z,57.12
2018-07-31T11:25:11.131Z,56.54
2018-07-31T11:26:11.151Z,56.61
2018-07-31T11:27:11.174Z,56.61
2018-07-31T11:28:11.197Z,56.64
2018-07-31T11:29:11.224Z,56.71
2018-07-31T11:30:11.240Z,56.90
2018-07-31T11:31:11.263Z,56.61
2018-07-31T11:32:11.292Z,56.74
2018-07-31T11:33:11.469Z,56.32
2018-07-31T11:34:11.336Z,57.03
2018-07-31T11:35:11.351Z,56.61
2018-07-31T11:36:11.372Z,56.54
2018-07-31T11:37:11.427Z,57.12
2018-07-31T11:38:11.411Z,56.61
2018-07-31T11:39:11.439Z,56.90
2018-07-31T11:40:11.460Z,56.32
2018-07-31T11:41:11.509Z,56.32
2018-07-31T11:42:11.518Z,56.32
2018-07-31T11:43:11.530Z,57.03
2018-07-31T11:44:11.542Z,56.61
2018-07-31T11:45:11.563Z,57.00
2018-07-31T11:46:11.589Z,56.45
2018-07-31T11:47:11.618Z,56.22
2018-07-31T11:48:11.634Z,57.00
2018-07-31T11:49:11.663Z,57.03
2018-07-31T11:50:11.718Z,56.93
2018-07-31T11:51:11.699Z,56.93
2018-07-31T11:52:11.718Z,56.35
2018-07-31T11:53:11.748Z,56.93
2018-07-31T11:54:11.764Z,57.00
2018-07-31T11:55:11.781Z,57.00
2018-07-31T11:56:11.803Z,56.22
2018-07-31T11:57:11.826Z,56.51
2018-07-31T11:58:11.852Z,56.51
2018-07-31T11:59:11.875Z,56.71
2018-07-31T12:00:11.892Z,57.10
2018-07-31T12:01:11.918Z,57.20
2018-07-31T12:02:12.041Z,56.41
2018-07-31T12:03:11.957Z,56.22
2018-07-31T12:04:11.994Z,56.51
2018-07-31T12:05:12.005Z,56.45
2018-07-31T12:06:12.023Z,56.41
2018-07-31T12:07:12.046Z,56.51
2018-07-31T12:08:12.065Z,56.41
2018-07-31T12:09:12.089Z,57.20
2018-07-31T12:10:12.103Z,56.74
2018-07-31T12:11:12.137Z,56.54
2018-07-31T12:12:12.161Z,56.64
2018-07-31T12:13:12.170Z,56.41
2018-07-31T12:14:12.187Z,56.74
2018-07-31T12:15:12.217Z,56.41
2018-07-31T12:16:12.239Z,56.84
2018-07-31T12:17:12.261Z,56.81
2018-07-31T12:18:12.293Z,56.54
2018-07-31T12:19:12.305Z,56.45
2018-07-31T12:20:12.345Z,56.74
2018-07-31T12:21:12.354Z,57.20
2018-07-31T12:22:12.368Z,57.22
2018-07-31T12:23:12.457Z,56.51
2018-07-31T12:24:12.411Z,56.61
2018-07-31T12:25:12.438Z,56.41
2018-07-31T12:26:12.461Z,57.20
2018-07-31T12:27:12.480Z,56.45
2018-07-31T12:28:12.491Z,56.54
2018-07-31T12:29:12.523Z,56.51
2018-07-31T12:30:12.545Z,56.74
2018-07-31T12:31:12.572Z,56.54
2018-07-31T12:32:12.598Z,56.45
2018-07-31T12:33:12.676Z,57.10
2018-07-31T12:34:12.629Z,56.54
2018-07-31T12:35:12.721Z,56.64
2018-07-31T12:36:12.677Z,56.61
2018-07-31T12:37:12.699Z,56.54
2018-07-31T12:38:12.799Z,56.61
2018-07-31T12:39:12.740Z,56.71
2018-07-31T12:40:12.766Z,57.12
2018-07-31T12:41:12.784Z,56.93
2018-07-31T12:42:12.814Z,56.51
2018-07-31T12:43:12.832Z,56.51
2018-07-31T12:44:12.855Z,56.51
2018-07-31T12:45:12.872Z,56.71
2018-07-31T12:46:12.890Z,56.90
2018-07-31T12:47:12.913Z,56.54
2018-07-31T12:48:12.936Z,56.35
2018-07-31T12:49:12.958Z,56.64
2018-07-31T12:50:13.007Z,56.61
2018-07-31T12:51:13.000Z,56.61
2018-07-31T12:52:13.024Z,56.25
2018-07-31T12:53:13.100Z,56.45